sensor_id;sensor_type;location;lat;lon;timestamp;temperature;humidity
66144;SHT31;52947;50.842;6.084;2022-10-30T00:01:09;18.71;62.59
66144;SHT31;52947;50.842;6.084;2022-10-30T00:03:37;18.71;62.58
66144;SHT31;52947;50.842;6.084;2022-10-30T00:06:06;18.78;62.54
66144;SHT31;52947;50.842;6.084;2022-10-30T00:08:34;18.62;62.79
66144;SHT31;52947;50.842;6.084;2022-10-30T00:11:06;18.65;62.75
66144;SHT31;52947;50.842;6.084;2022-10-30T00:13:35;18.67;62.70
66144;SHT31;52947;50.842;6.084;2022-10-30T00:16:05;18.58;62.90
66144;SHT31;52947;50.842;6.084;2022-10-30T00:18:34;18.50;63.16
66144;SHT31;52947;50.842;6.084;2022-10-30T00:21:08;18.51;63.05
66144;SHT31;52947;50.842;6.084;2022-10-30T00:23:37;18.51;63.23
66144;SHT31;52947;50.842;6.084;2022-10-30T00:26:06;18.45;63.30
66144;SHT31;52947;50.842;6.084;2022-10-30T00:28:33;18.50;63.32
66144;SHT31;52947;50.842;6.084;2022-10-30T00:31:03;18.47;63.33
66144;SHT31;52947;50.842;6.084;2022-10-30T00:33:31;18.50;63.34
66144;SHT31;52947;50.842;6.084;2022-10-30T00:35:59;18.52;63.36
66144;SHT31;52947;50.842;6.084;2022-10-30T00:38:28;18.50;63.36
66144;SHT31;52947;50.842;6.084;2022-10-30T00:40:56;18.51;63.33
66144;SHT31;52947;50.842;6.084;2022-10-30T00:43:29;18.44;63.65
66144;SHT31;52947;50.842;6.084;2022-10-30T00:46:00;18.45;63.44
66144;SHT31;52947;50.842;6.084;2022-10-30T00:48:29;18.52;63.23
66144;SHT31;52947;50.842;6.084;2022-10-30T00:50:57;18.50;63.37
66144;SHT31;52947;50.842;6.084;2022-10-30T00:53:28;18.40;63.69
66144;SHT31;52947;50.842;6.084;2022-10-30T00:55:59;18.40;63.57
66144;SHT31;52947;50.842;6.084;2022-10-30T00:58:31;18.43;63.49
66144;SHT31;52947;50.842;6.084;2022-10-30T01:01:03;18.44;63.49
66144;SHT31;52947;50.842;6.084;2022-10-30T01:03:33;18.38;63.63
66144;SHT31;52947;50.842;6.084;2022-10-30T01:06:05;18.38;63.69
66144;SHT31;52947;50.842;6.084;2022-10-30T01:08:36;18.37;63.59
66144;SHT31;52947;50.842;6.084;2022-10-30T01:11:05;18.30;63.87
66144;SHT31;52947;50.842;6.084;2022-10-30T01:13:34;18.10;64.29
66144;SHT31;52947;50.842;6.084;2022-10-30T01:16:13;18.04;64.38
66144;SHT31;52947;50.842;6.084;2022-10-30T01:18:47;17.94;64.69
66144;SHT31;52947;50.842;6.084;2022-10-30T01:21:35;17.87;64.82
66144;SHT31;52947;50.842;6.084;2022-10-30T01:24:18;17.79;65.06
66144;SHT31;52947;50.842;6.084;2022-10-30T01:26:51;17.78;65.11
66144;SHT31;52947;50.842;6.084;2022-10-30T01:29:32;17.68;65.46
66144;SHT31;52947;50.842;6.084;2022-10-30T01:32:16;17.59;65.60
66144;SHT31;52947;50.842;6.084;2022-10-30T01:34:52;17.56;65.77
66144;SHT31;52947;50.842;6.084;2022-10-30T01:37:29;17.38;66.25
66144;SHT31;52947;50.842;6.084;2022-10-30T01:40:03;17.19;66.60
66144;SHT31;52947;50.842;6.084;2022-10-30T01:42:44;17.18;66.66
66144;SHT31;52947;50.842;6.084;2022-10-30T01:45:22;17.15;66.62
66144;SHT31;52947;50.842;6.084;2022-10-30T01:48:06;16.95;66.99
66144;SHT31;52947;50.842;6.084;2022-10-30T01:50:47;16.85;67.43
66144;SHT31;52947;50.842;6.084;2022-10-30T01:53:28;16.71;67.53
66144;SHT31;52947;50.842;6.084;2022-10-30T01:56:14;16.66;67.92
66144;SHT31;52947;50.842;6.084;2022-10-30T01:58:49;16.55;68.01
66144;SHT31;52947;50.842;6.084;2022-10-30T02:01:21;16.45;68.35
66144;SHT31;52947;50.842;6.084;2022-10-30T02:03:50;16.23;68.80
66144;SHT31;52947;50.842;6.084;2022-10-30T02:06:18;16.19;69.00
66144;SHT31;52947;50.842;6.084;2022-10-30T02:08:46;16.10;68.99
66144;SHT31;52947;50.842;6.084;2022-10-30T02:11:16;15.98;69.31
66144;SHT31;52947;50.842;6.084;2022-10-30T02:13:44;16.01;69.49
66144;SHT31;52947;50.842;6.084;2022-10-30T02:16:12;16.05;69.37
66144;SHT31;52947;50.842;6.084;2022-10-30T02:18:41;15.92;69.27
66144;SHT31;52947;50.842;6.084;2022-10-30T02:21:15;15.88;69.92
66144;SHT31;52947;50.842;6.084;2022-10-30T02:23:43;15.91;69.99
66144;SHT31;52947;50.842;6.084;2022-10-30T02:26:11;15.94;69.83
66144;SHT31;52947;50.842;6.084;2022-10-30T02:28:40;15.95;69.92
66144;SHT31;52947;50.842;6.084;2022-10-30T02:31:08;16.05;69.65
66144;SHT31;52947;50.842;6.084;2022-10-30T02:33:35;16.06;69.58
66144;SHT31;52947;50.842;6.084;2022-10-30T02:36:04;16.04;69.61
66144;SHT31;52947;50.842;6.084;2022-10-30T02:38:33;16.06;69.64
66144;SHT31;52947;50.842;6.084;2022-10-30T02:41:01;16.06;69.63
66144;SHT31;52947;50.842;6.084;2022-10-30T02:43:29;16.10;69.41
66144;SHT31;52947;50.842;6.084;2022-10-30T02:45:58;16.16;69.34
66144;SHT31;52947;50.842;6.084;2022-10-30T02:48:26;16.19;69.23
66144;SHT31;52947;50.842;6.084;2022-10-30T02:50:58;16.16;69.29
66144;SHT31;52947;50.842;6.084;2022-10-30T02:53:27;16.05;69.47
66144;SHT31;52947;50.842;6.084;2022-10-30T02:56:02;15.97;69.72
66144;SHT31;52947;50.842;6.084;2022-10-30T02:58:30;15.92;69.87
66144;SHT31;52947;50.842;6.084;2022-10-30T03:01:04;15.85;70.14
66144;SHT31;52947;50.842;6.084;2022-10-30T03:03:32;15.91;70.10
66144;SHT31;52947;50.842;6.084;2022-10-30T03:06:00;15.89;70.00
66144;SHT31;52947;50.842;6.084;2022-10-30T03:08:28;15.77;70.16
66144;SHT31;52947;50.842;6.084;2022-10-30T03:11:04;15.78;70.40
66144;SHT31;52947;50.842;6.084;2022-10-30T03:13:33;15.77;70.41
66144;SHT31;52947;50.842;6.084;2022-10-30T03:16:02;15.68;70.59
66144;SHT31;52947;50.842;6.084;2022-10-30T03:18:31;15.68;70.79
66144;SHT31;52947;50.842;6.084;2022-10-30T03:21:07;15.88;78.83
66144;SHT31;52947;50.842;6.084;2022-10-30T03:23:36;16.04;80.49
66144;SHT31;52947;50.842;6.084;2022-10-30T03:26:05;16.15;77.32
66144;SHT31;52947;50.842;6.084;2022-10-30T03:28:45;16.08;77.67
66144;SHT31;52947;50.842;6.084;2022-10-30T03:31:15;16.18;77.79
66144;SHT31;52947;50.842;6.084;2022-10-30T03:33:45;16.25;78.41
66144;SHT31;52947;50.842;6.084;2022-10-30T03:36:13;16.26;78.51
66144;SHT31;52947;50.842;6.084;2022-10-30T03:38:42;16.23;76.06
66144;SHT31;52947;50.842;6.084;2022-10-30T03:41:15;16.13;75.30
66144;SHT31;52947;50.842;6.084;2022-10-30T03:43:43;16.15;77.71
66144;SHT31;52947;50.842;6.084;2022-10-30T03:46:11;16.06;77.93
66144;SHT31;52947;50.842;6.084;2022-10-30T03:48:38;16.12;78.32
66144;SHT31;52947;50.842;6.084;2022-10-30T03:51:07;16.13;73.97
66144;SHT31;52947;50.842;6.084;2022-10-30T03:53:35;16.18;71.76
66144;SHT31;52947;50.842;6.084;2022-10-30T03:56:04;16.12;71.58
66144;SHT31;52947;50.842;6.084;2022-10-30T03:58:43;16.12;74.59
66144;SHT31;52947;50.842;6.084;2022-10-30T04:01:13;16.02;75.93
66144;SHT31;52947;50.842;6.084;2022-10-30T04:03:46;15.81;75.54
66144;SHT31;52947;50.842;6.084;2022-10-30T04:06:13;15.67;75.88
66144;SHT31;52947;50.842;6.084;2022-10-30T04:08:42;15.53;72.39
66144;SHT31;52947;50.842;6.084;2022-10-30T04:11:10;15.41;74.24
66144;SHT31;52947;50.842;6.084;2022-10-30T04:13:38;15.46;74.73
66144;SHT31;52947;50.842;6.084;2022-10-30T04:16:07;15.46;75.47
66144;SHT31;52947;50.842;6.084;2022-10-30T04:18:35;15.38;74.16
66144;SHT31;52947;50.842;6.084;2022-10-30T04:21:04;15.48;75.11
66144;SHT31;52947;50.842;6.084;2022-10-30T04:23:34;15.37;73.84
66144;SHT31;52947;50.842;6.084;2022-10-30T04:26:03;15.44;74.19
66144;SHT31;52947;50.842;6.084;2022-10-30T04:28:31;15.40;73.09
66144;SHT31;52947;50.842;6.084;2022-10-30T04:30:59;15.33;73.21
66144;SHT31;52947;50.842;6.084;2022-10-30T04:33:28;15.40;73.88
66144;SHT31;52947;50.842;6.084;2022-10-30T04:35:58;15.36;73.72
66144;SHT31;52947;50.842;6.084;2022-10-30T04:38:26;15.46;75.36
66144;SHT31;52947;50.842;6.084;2022-10-30T04:40:55;15.41;74.31
66144;SHT31;52947;50.842;6.084;2022-10-30T04:43:37;15.31;77.30
66144;SHT31;52947;50.842;6.084;2022-10-30T04:46:05;15.22;74.28
66144;SHT31;52947;50.842;6.084;2022-10-30T04:48:34;15.14;74.04
66144;SHT31;52947;50.842;6.084;2022-10-30T04:51:03;15.11;74.98
66144;SHT31;52947;50.842;6.084;2022-10-30T04:53:31;15.17;77.32
66144;SHT31;52947;50.842;6.084;2022-10-30T04:56:05;15.24;76.40
66144;SHT31;52947;50.842;6.084;2022-10-30T04:58:33;15.37;77.02
66144;SHT31;52947;50.842;6.084;2022-10-30T05:01:05;15.31;75.85
66144;SHT31;52947;50.842;6.084;2022-10-30T05:03:35;15.03;73.84
66144;SHT31;52947;50.842;6.084;2022-10-30T05:06:16;14.83;74.03
66144;SHT31;52947;50.842;6.084;2022-10-30T05:08:46;14.58;74.58
66144;SHT31;52947;50.842;6.084;2022-10-30T05:11:32;14.31;75.57
66144;SHT31;52947;50.842;6.084;2022-10-30T05:14:01;14.10;75.97
66144;SHT31;52947;50.842;6.084;2022-10-30T05:16:30;13.84;76.03
66144;SHT31;52947;50.842;6.084;2022-10-30T05:19:02;13.62;76.65
66144;SHT31;52947;50.842;6.084;2022-10-30T05:21:32;13.47;77.55
66144;SHT31;52947;50.842;6.084;2022-10-30T05:24:00;13.39;78.11
66144;SHT31;52947;50.842;6.084;2022-10-30T05:26:35;13.23;78.18
66144;SHT31;52947;50.842;6.084;2022-10-30T05:29:03;13.15;78.47
66144;SHT31;52947;50.842;6.084;2022-10-30T05:31:31;13.47;86.31
66144;SHT31;52947;50.842;6.084;2022-10-30T05:34:26;13.84;85.79
66144;SHT31;52947;50.842;6.084;2022-10-30T05:36:54;14.15;84.00
66144;SHT31;52947;50.842;6.084;2022-10-30T05:39:22;14.38;84.18
66144;SHT31;52947;50.842;6.084;2022-10-30T05:41:50;14.64;83.43
66144;SHT31;52947;50.842;6.084;2022-10-30T05:44:19;14.61;82.37
66144;SHT31;52947;50.842;6.084;2022-10-30T05:47:09;14.41;80.90
66144;SHT31;52947;50.842;6.084;2022-10-30T05:49:41;14.44;82.94
66144;SHT31;52947;50.842;6.084;2022-10-30T05:52:14;14.65;81.23
66144;SHT31;52947;50.842;6.084;2022-10-30T05:54:42;14.44;80.34
66144;SHT31;52947;50.842;6.084;2022-10-30T05:57:17;14.72;82.43
66144;SHT31;52947;50.842;6.084;2022-10-30T05:59:45;14.85;81.61
66144;SHT31;52947;50.842;6.084;2022-10-30T06:02:13;15.07;80.33
66144;SHT31;52947;50.842;6.084;2022-10-30T06:04:42;15.27;78.81
66144;SHT31;52947;50.842;6.084;2022-10-30T06:07:12;15.13;76.71
66144;SHT31;52947;50.842;6.084;2022-10-30T06:09:40;15.17;79.33
66144;SHT31;52947;50.842;6.084;2022-10-30T06:12:27;15.04;78.23
66144;SHT31;52947;50.842;6.084;2022-10-30T06:15:15;14.54;77.84
66144;SHT31;52947;50.842;6.084;2022-10-30T06:17:43;14.34;79.34
66144;SHT31;52947;50.842;6.084;2022-10-30T06:20:20;14.29;80.57
66144;SHT31;52947;50.842;6.084;2022-10-30T06:23:02;14.49;80.02
66144;SHT31;52947;50.842;6.084;2022-10-30T06:25:45;14.36;79.01
66144;SHT31;52947;50.842;6.084;2022-10-30T06:28:22;14.41;80.01
66144;SHT31;52947;50.842;6.084;2022-10-30T06:30:52;14.54;79.31
66144;SHT31;52947;50.842;6.084;2022-10-30T06:33:20;14.69;78.69
66144;SHT31;52947;50.842;6.084;2022-10-30T06:35:51;14.71;78.91
66144;SHT31;52947;50.842;6.084;2022-10-30T06:38:19;14.90;79.39
66144;SHT31;52947;50.842;6.084;2022-10-30T06:40:48;15.10;75.69
66144;SHT31;52947;50.842;6.084;2022-10-30T06:43:29;15.22;76.12
66144;SHT31;52947;50.842;6.084;2022-10-30T06:46:02;15.11;75.84
66144;SHT31;52947;50.842;6.084;2022-10-30T06:48:32;15.06;74.40
66144;SHT31;52947;50.842;6.084;2022-10-30T06:51:01;15.17;76.63
66144;SHT31;52947;50.842;6.084;2022-10-30T06:53:33;15.27;76.03
66144;SHT31;52947;50.842;6.084;2022-10-30T06:56:27;15.02;74.52
66144;SHT31;52947;50.842;6.084;2022-10-30T06:59:13;15.04;74.22
66144;SHT31;52947;50.842;6.084;2022-10-30T07:01:50;15.13;73.70
66144;SHT31;52947;50.842;6.084;2022-10-30T07:04:25;15.36;74.72
66144;SHT31;52947;50.842;6.084;2022-10-30T07:06:58;15.37;73.41
66144;SHT31;52947;50.842;6.084;2022-10-30T07:09:30;15.54;74.07
66144;SHT31;52947;50.842;6.084;2022-10-30T07:11:58;16.05;72.40
66144;SHT31;52947;50.842;6.084;2022-10-30T07:14:39;16.70;70.00
66144;SHT31;52947;50.842;6.084;2022-10-30T07:17:36;17.06;68.08
66144;SHT31;52947;50.842;6.084;2022-10-30T07:20:11;17.48;67.70
66144;SHT31;52947;50.842;6.084;2022-10-30T07:22:41;17.78;66.58
66144;SHT31;52947;50.842;6.084;2022-10-30T07:25:10;18.17;65.48
66144;SHT31;52947;50.842;6.084;2022-10-30T07:27:56;18.43;64.99
66144;SHT31;52947;50.842;6.084;2022-10-30T07:30:34;18.85;64.35
66144;SHT31;52947;50.842;6.084;2022-10-30T07:33:34;19.16;63.61
66144;SHT31;52947;50.842;6.084;2022-10-30T07:36:16;19.46;63.39
66144;SHT31;52947;50.842;6.084;2022-10-30T07:38:53;19.67;62.66
66144;SHT31;52947;50.842;6.084;2022-10-30T07:41:29;19.64;62.94
66144;SHT31;52947;50.842;6.084;2022-10-30T07:44:15;19.47;62.65
66144;SHT31;52947;50.842;6.084;2022-10-30T07:46:47;19.18;63.11
66144;SHT31;52947;50.842;6.084;2022-10-30T07:49:37;19.12;63.07
66144;SHT31;52947;50.842;6.084;2022-10-30T07:52:06;19.09;63.57
66144;SHT31;52947;50.842;6.084;2022-10-30T07:54:41;18.91;63.77
66144;SHT31;52947;50.842;6.084;2022-10-30T07:57:37;19.09;63.49
66144;SHT31;52947;50.842;6.084;2022-10-30T08:00:24;19.29;63.47
66144;SHT31;52947;50.842;6.084;2022-10-30T08:03:15;19.97;63.27
66144;SHT31;52947;50.842;6.084;2022-10-30T08:05:52;20.68;60.92
66144;SHT31;52947;50.842;6.084;2022-10-30T08:08:32;21.02;60.82
66144;SHT31;52947;50.842;6.084;2022-10-30T08:11:39;21.48;58.70
66144;SHT31;52947;50.842;6.084;2022-10-30T08:14:07;22.16;57.81
66144;SHT31;52947;50.842;6.084;2022-10-30T08:16:35;22.98;56.89
66144;SHT31;52947;50.842;6.084;2022-10-30T08:19:04;23.69;54.90
66144;SHT31;52947;50.842;6.084;2022-10-30T08:21:32;24.67;53.35
66144;SHT31;52947;50.842;6.084;2022-10-30T08:24:07;25.18;52.16
66144;SHT31;52947;50.842;6.084;2022-10-30T08:26:36;26.20;48.78
66144;SHT31;52947;50.842;6.084;2022-10-30T08:29:06;26.37;48.27
66144;SHT31;52947;50.842;6.084;2022-10-30T08:31:34;26.56;47.79
66144;SHT31;52947;50.842;6.084;2022-10-30T08:34:02;26.72;47.93
66144;SHT31;52947;50.842;6.084;2022-10-30T08:36:37;27.04;46.75
66144;SHT31;52947;50.842;6.084;2022-10-30T08:39:09;27.53;47.07
66144;SHT31;52947;50.842;6.084;2022-10-30T08:41:50;28.11;45.98
66144;SHT31;52947;50.842;6.084;2022-10-30T08:44:21;28.60;44.79
66144;SHT31;52947;50.842;6.084;2022-10-30T08:47:07;27.91;44.65
66144;SHT31;52947;50.842;6.084;2022-10-30T08:49:36;27.09;45.38
66144;SHT31;52947;50.842;6.084;2022-10-30T08:52:06;26.71;45.45
66144;SHT31;52947;50.842;6.084;2022-10-30T08:54:35;26.56;46.83
66144;SHT31;52947;50.842;6.084;2022-10-30T08:57:02;26.58;46.02
66144;SHT31;52947;50.842;6.084;2022-10-30T08:59:32;26.44;46.56
66144;SHT31;52947;50.842;6.084;2022-10-30T09:02:00;26.63;46.53
66144;SHT31;52947;50.842;6.084;2022-10-30T09:04:46;26.44;46.52
66144;SHT31;52947;50.842;6.084;2022-10-30T09:07:49;25.94;47.60
66144;SHT31;52947;50.842;6.084;2022-10-30T09:10:45;26.48;47.66
66144;SHT31;52947;50.842;6.084;2022-10-30T09:13:12;26.58;47.28
66144;SHT31;52947;50.842;6.084;2022-10-30T09:15:43;27.02;47.67
66144;SHT31;52947;50.842;6.084;2022-10-30T09:18:11;27.43;46.07
66144;SHT31;52947;50.842;6.084;2022-10-30T09:20:39;26.78;47.99
66144;SHT31;52947;50.842;6.084;2022-10-30T09:23:07;26.82;46.73
66144;SHT31;52947;50.842;6.084;2022-10-30T09:25:34;27.02;47.33
66144;SHT31;52947;50.842;6.084;2022-10-30T09:28:25;27.40;46.57
66144;SHT31;52947;50.842;6.084;2022-10-30T09:31:14;28.06;45.37
66144;SHT31;52947;50.842;6.084;2022-10-30T09:33:42;28.42;44.45
66144;SHT31;52947;50.842;6.084;2022-10-30T09:36:30;28.57;44.06
66144;SHT31;52947;50.842;6.084;2022-10-30T09:38:59;28.60;44.52
66144;SHT31;52947;50.842;6.084;2022-10-30T09:41:40;29.01;43.28
66144;SHT31;52947;50.842;6.084;2022-10-30T09:44:26;29.18;43.33
66144;SHT31;52947;50.842;6.084;2022-10-30T09:47:06;29.18;41.94
66144;SHT31;52947;50.842;6.084;2022-10-30T09:49:49;28.97;42.82
66144;SHT31;52947;50.842;6.084;2022-10-30T09:52:27;29.18;42.94
66144;SHT31;52947;50.842;6.084;2022-10-30T09:55:09;29.28;42.49
66144;SHT31;52947;50.842;6.084;2022-10-30T09:57:48;29.17;42.44
66144;SHT31;52947;50.842;6.084;2022-10-30T10:00:18;28.72;43.02
66144;SHT31;52947;50.842;6.084;2022-10-30T10:03:02;28.89;42.64
66144;SHT31;52947;50.842;6.084;2022-10-30T10:05:43;28.86;42.93
66144;SHT31;52947;50.842;6.084;2022-10-30T10:08:36;29.42;41.98
66144;SHT31;52947;50.842;6.084;2022-10-30T10:11:28;30.19;40.55
66144;SHT31;52947;50.842;6.084;2022-10-30T10:13:59;29.82;40.33
66144;SHT31;52947;50.842;6.084;2022-10-30T10:16:30;29.96;40.64
66144;SHT31;52947;50.842;6.084;2022-10-30T10:19:08;29.50;41.17
66144;SHT31;52947;50.842;6.084;2022-10-30T10:21:42;29.38;41.00
66144;SHT31;52947;50.842;6.084;2022-10-30T10:24:15;29.81;41.22
66144;SHT31;52947;50.842;6.084;2022-10-30T10:26:47;30.05;40.65
66144;SHT31;52947;50.842;6.084;2022-10-30T10:29:31;30.56;39.63
66144;SHT31;52947;50.842;6.084;2022-10-30T10:32:16;30.22;39.70
66144;SHT31;52947;50.842;6.084;2022-10-30T10:34:56;30.06;39.56
66144;SHT31;52947;50.842;6.084;2022-10-30T10:37:38;30.43;39.73
66144;SHT31;52947;50.842;6.084;2022-10-30T10:40:21;30.83;40.05
66144;SHT31;52947;50.842;6.084;2022-10-30T10:43:06;30.29;39.23
66144;SHT31;52947;50.842;6.084;2022-10-30T10:45:43;30.77;39.18
66144;SHT31;52947;50.842;6.084;2022-10-30T10:48:25;30.54;38.49
66144;SHT31;52947;50.842;6.084;2022-10-30T10:50:59;30.40;39.43
66144;SHT31;52947;50.842;6.084;2022-10-30T10:53:34;30.47;39.78
66144;SHT31;52947;50.842;6.084;2022-10-30T10:56:04;30.68;39.16
66144;SHT31;52947;50.842;6.084;2022-10-30T10:58:33;30.23;39.16
66144;SHT31;52947;50.842;6.084;2022-10-30T11:01:05;30.14;39.63
66144;SHT31;52947;50.842;6.084;2022-10-30T11:03:46;30.17;40.49
66144;SHT31;52947;50.842;6.084;2022-10-30T11:06:20;30.80;39.35
66144;SHT31;52947;50.842;6.084;2022-10-30T11:08:49;30.67;38.63
66144;SHT31;52947;50.842;6.084;2022-10-30T11:11:19;30.80;39.37
66144;SHT31;52947;50.842;6.084;2022-10-30T11:13:47;30.47;39.28
66144;SHT31;52947;50.842;6.084;2022-10-30T11:16:23;30.22;39.79
66144;SHT31;52947;50.842;6.084;2022-10-30T11:18:55;29.90;38.98
66144;SHT31;52947;50.842;6.084;2022-10-30T11:21:26;29.48;40.73
66144;SHT31;52947;50.842;6.084;2022-10-30T11:23:55;29.17;40.98
66144;SHT31;52947;50.842;6.084;2022-10-30T11:26:27;28.49;41.39
66144;SHT31;52947;50.842;6.084;2022-10-30T11:28:58;27.98;41.90
66144;SHT31;52947;50.842;6.084;2022-10-30T11:31:29;27.72;42.43
66144;SHT31;52947;50.842;6.084;2022-10-30T11:34:36;27.76;42.88
66144;SHT31;52947;50.842;6.084;2022-10-30T11:37:31;28.12;43.17
66144;SHT31;52947;50.842;6.084;2022-10-30T11:40:06;28.19;43.18
66144;SHT31;52947;50.842;6.084;2022-10-30T11:42:35;28.15;43.45
66144;SHT31;52947;50.842;6.084;2022-10-30T11:45:05;27.85;43.96
66144;SHT31;52947;50.842;6.084;2022-10-30T11:47:40;27.80;43.87
66144;SHT31;52947;50.842;6.084;2022-10-30T11:50:16;27.71;44.98
66144;SHT31;52947;50.842;6.084;2022-10-30T11:52:47;27.41;44.37
66144;SHT31;52947;50.842;6.084;2022-10-30T11:55:18;27.33;44.52
66144;SHT31;52947;50.842;6.084;2022-10-30T11:57:48;27.16;44.62
66144;SHT31;52947;50.842;6.084;2022-10-30T12:00:18;27.55;44.04
66144;SHT31;52947;50.842;6.084;2022-10-30T12:02:50;27.46;44.22
66144;SHT31;52947;50.842;6.084;2022-10-30T12:05:30;27.33;43.85
66144;SHT31;52947;50.842;6.084;2022-10-30T12:08:18;26.68;45.11
66144;SHT31;52947;50.842;6.084;2022-10-30T12:10:53;27.19;43.27
66144;SHT31;52947;50.842;6.084;2022-10-30T12:13:23;26.92;43.69
66144;SHT31;52947;50.842;6.084;2022-10-30T12:16:04;26.47;43.64
66144;SHT31;52947;50.842;6.084;2022-10-30T12:18:33;26.10;44.45
66144;SHT31;52947;50.842;6.084;2022-10-30T12:21:01;26.01;44.63
66144;SHT31;52947;50.842;6.084;2022-10-30T12:23:31;25.59;44.76
66144;SHT31;52947;50.842;6.084;2022-10-30T12:26:00;25.46;45.78
66144;SHT31;52947;50.842;6.084;2022-10-30T12:28:35;25.39;45.82
66144;SHT31;52947;50.842;6.084;2022-10-30T12:31:08;24.94;46.23
66144;SHT31;52947;50.842;6.084;2022-10-30T12:33:40;24.67;46.38
66144;SHT31;52947;50.842;6.084;2022-10-30T12:36:11;24.44;47.26
66144;SHT31;52947;50.842;6.084;2022-10-30T12:38:44;24.61;47.55
66144;SHT31;52947;50.842;6.084;2022-10-30T12:41:17;24.88;47.01
66144;SHT31;52947;50.842;6.084;2022-10-30T12:43:51;25.01;45.90
66144;SHT31;52947;50.842;6.084;2022-10-30T12:46:30;24.91;46.09
66144;SHT31;52947;50.842;6.084;2022-10-30T12:49:07;24.58;47.04
66144;SHT31;52947;50.842;6.084;2022-10-30T12:51:41;24.47;47.44
66144;SHT31;52947;50.842;6.084;2022-10-30T12:54:18;24.58;47.34
66144;SHT31;52947;50.842;6.084;2022-10-30T12:56:55;24.85;46.64
66144;SHT31;52947;50.842;6.084;2022-10-30T12:59:32;24.94;46.89
66144;SHT31;52947;50.842;6.084;2022-10-30T13:02:14;25.09;46.80
66144;SHT31;52947;50.842;6.084;2022-10-30T13:04:48;25.05;46.00
66144;SHT31;52947;50.842;6.084;2022-10-30T13:07:23;25.07;46.10
66144;SHT31;52947;50.842;6.084;2022-10-30T13:10:02;25.47;46.41
66144;SHT31;52947;50.842;6.084;2022-10-30T13:12:32;25.66;44.37
66144;SHT31;52947;50.842;6.084;2022-10-30T13:15:04;25.18;44.79
66144;SHT31;52947;50.842;6.084;2022-10-30T13:17:35;25.08;45.19
66144;SHT31;52947;50.842;6.084;2022-10-30T13:20:04;24.91;44.59
66144;SHT31;52947;50.842;6.084;2022-10-30T13:22:40;24.56;44.93
66144;SHT31;52947;50.842;6.084;2022-10-30T13:25:18;24.17;46.22
66144;SHT31;52947;50.842;6.084;2022-10-30T13:27:51;24.36;45.87
66144;SHT31;52947;50.842;6.084;2022-10-30T13:30:22;24.46;46.11
66144;SHT31;52947;50.842;6.084;2022-10-30T13:33:00;24.36;45.84
66144;SHT31;52947;50.842;6.084;2022-10-30T13:35:36;24.40;45.10
66144;SHT31;52947;50.842;6.084;2022-10-30T13:38:17;24.27;45.84
66144;SHT31;52947;50.842;6.084;2022-10-30T13:40:52;24.17;46.09
66144;SHT31;52947;50.842;6.084;2022-10-30T13:43:30;23.92;47.30
66144;SHT31;52947;50.842;6.084;2022-10-30T13:46:18;23.79;48.27
66144;SHT31;52947;50.842;6.084;2022-10-30T13:48:58;23.62;47.39
66144;SHT31;52947;50.842;6.084;2022-10-30T13:51:38;23.55;48.80
66144;SHT31;52947;50.842;6.084;2022-10-30T13:54:13;23.39;47.69
66144;SHT31;52947;50.842;6.084;2022-10-30T13:56:45;23.27;47.43
66144;SHT31;52947;50.842;6.084;2022-10-30T13:59:30;23.19;47.81
66144;SHT31;52947;50.842;6.084;2022-10-30T14:02:13;23.17;50.31
66144;SHT31;52947;50.842;6.084;2022-10-30T14:04:50;23.18;49.43
66144;SHT31;52947;50.842;6.084;2022-10-30T14:07:27;23.24;49.49
66144;SHT31;52947;50.842;6.084;2022-10-30T14:10:00;23.24;50.10
66144;SHT31;52947;50.842;6.084;2022-10-30T14:12:44;23.17;49.18
66144;SHT31;52947;50.842;6.084;2022-10-30T14:15:24;23.04;48.39
66144;SHT31;52947;50.842;6.084;2022-10-30T14:18:25;22.80;48.02
66144;SHT31;52947;50.842;6.084;2022-10-30T14:20:54;22.73;49.56
66144;SHT31;52947;50.842;6.084;2022-10-30T14:23:24;22.67;50.75
66144;SHT31;52947;50.842;6.084;2022-10-30T14:26:13;22.61;50.29
66144;SHT31;52947;50.842;6.084;2022-10-30T14:28:43;22.52;50.10
66144;SHT31;52947;50.842;6.084;2022-10-30T14:31:12;22.57;52.96
66144;SHT31;52947;50.842;6.084;2022-10-30T14:33:45;22.60;53.76
66144;SHT31;52947;50.842;6.084;2022-10-30T14:36:18;22.63;51.17
66144;SHT31;52947;50.842;6.084;2022-10-30T14:38:57;22.57;51.78
66144;SHT31;52947;50.842;6.084;2022-10-30T14:41:51;22.63;54.29
66144;SHT31;52947;50.842;6.084;2022-10-30T14:47:28;22.71;52.01
66144;SHT31;52947;50.842;6.084;2022-10-30T14:50:00;22.64;51.87
66144;SHT31;52947;50.842;6.084;2022-10-30T14:52:36;22.55;52.38
66144;SHT31;52947;50.842;6.084;2022-10-30T14:55:21;22.50;51.58
66144;SHT31;52947;50.842;6.084;2022-10-30T14:57:51;22.43;52.61
66144;SHT31;52947;50.842;6.084;2022-10-30T15:00:39;22.30;52.10
66144;SHT31;52947;50.842;6.084;2022-10-30T15:03:17;22.32;52.78
66144;SHT31;52947;50.842;6.084;2022-10-30T15:05:53;22.17;53.48
66144;SHT31;52947;50.842;6.084;2022-10-30T15:08:41;22.06;52.95
66144;SHT31;52947;50.842;6.084;2022-10-30T15:11:21;21.94;53.34
66144;SHT31;52947;50.842;6.084;2022-10-30T15:13:54;21.82;55.26
66144;SHT31;52947;50.842;6.084;2022-10-30T15:16:25;21.75;54.45
66144;SHT31;52947;50.842;6.084;2022-10-30T15:18:58;21.62;56.85
66144;SHT31;52947;50.842;6.084;2022-10-30T15:21:27;21.57;54.67
66144;SHT31;52947;50.842;6.084;2022-10-30T15:23:59;21.48;57.92
66144;SHT31;52947;50.842;6.084;2022-10-30T15:26:33;21.45;59.12
66144;SHT31;52947;50.842;6.084;2022-10-30T15:29:03;21.40;57.88
66144;SHT31;52947;50.842;6.084;2022-10-30T15:31:32;21.30;58.66
66144;SHT31;52947;50.842;6.084;2022-10-30T15:34:00;21.10;58.91
66144;SHT31;52947;50.842;6.084;2022-10-30T15:36:33;20.94;58.80
66144;SHT31;52947;50.842;6.084;2022-10-30T15:39:03;20.77;59.45
66144;SHT31;52947;50.842;6.084;2022-10-30T15:41:33;20.52;58.14
66144;SHT31;52947;50.842;6.084;2022-10-30T15:44:04;20.24;58.70
66144;SHT31;52947;50.842;6.084;2022-10-30T15:46:34;20.07;58.97
66144;SHT31;52947;50.842;6.084;2022-10-30T15:49:03;19.81;59.11
66144;SHT31;52947;50.842;6.084;2022-10-30T15:51:32;19.59;59.53
66144;SHT31;52947;50.842;6.084;2022-10-30T15:54:01;19.39;59.94
66144;SHT31;52947;50.842;6.084;2022-10-30T15:56:32;19.43;59.90
66144;SHT31;52947;50.842;6.084;2022-10-30T15:59:16;19.36;59.77
66144;SHT31;52947;50.842;6.084;2022-10-30T16:01:46;19.34;59.75
66144;SHT31;52947;50.842;6.084;2022-10-30T16:04:16;19.27;59.62
66144;SHT31;52947;50.842;6.084;2022-10-30T16:06:49;19.29;59.70
66144;SHT31;52947;50.842;6.084;2022-10-30T16:09:18;19.15;59.88
66144;SHT31;52947;50.842;6.084;2022-10-30T16:11:47;19.16;60.12
66144;SHT31;52947;50.842;6.084;2022-10-30T16:14:19;19.06;60.69
66144;SHT31;52947;50.842;6.084;2022-10-30T16:16:49;18.99;60.85